AFL3500 URSS-VTSP
Flight info
| Callsign | AFL3500 |
|---|---|
| Flight time | N/A |
| Altitude | 39000 |
| Route | BINOL G487 GUBOR A944 RESLO B491 BISNA/N0497F390 M23 MARAL B450 MAMED B449 RANAH L750 ZB G201 BINDO L750 MERUN L333 JJP J1 KKJ L759 SATVA SATVA1D |
| Aircraft | A359/H-SDE2E3GHIJ3J4J5LM1ORWXY/LB1D1 |
Departure
| Time | N/A |
|---|---|
| Airport | Sochi International Airport (URSS) |
Arrival
| Time | 2026-05-08 06:35 |
|---|---|
| Airport | Phuket International Airport (VTSP) |
| Time | Latitude | Longitude | Altitude | Speed | Heading |
|---|---|---|---|---|---|
| 2026-05-08 04:16 | 20.29097 | 85.75328 | 38912 ft | 490 kts | 134° |
| 2026-05-08 04:16 | 20.26915 | 85.78127 | 38913 ft | 493 kts | 134° |
| 2026-05-08 04:17 | 20.22344 | 85.83599 | 38912 ft | 494 kts | 139° |
| 2026-05-08 04:17 | 20.17381 | 85.88703 | 38912 ft | 498 kts | 141° |
| 2026-05-08 04:18 | 20.12344 | 85.93741 | 38911 ft | 502 kts | 141° |
| 2026-05-08 04:18 | 20.07260 | 85.98886 | 38905 ft | 507 kts | 140° |
| 2026-05-08 04:19 | 20.02150 | 86.04104 | 38905 ft | 510 kts | 140° |
| 2026-05-08 04:19 | 19.97013 | 86.09367 | 38904 ft | 513 kts | 140° |
| 2026-05-08 04:20 | 19.91889 | 86.14610 | 38906 ft | 515 kts | 140° |
| 2026-05-08 04:20 | 19.86729 | 86.19957 | 38904 ft | 517 kts | 139° |
| 2026-05-08 04:21 | 19.81656 | 86.25336 | 38906 ft | 518 kts | 139° |
| 2026-05-08 04:21 | 19.76551 | 86.30746 | 38905 ft | 518 kts | 139° |
| 2026-05-08 04:22 | 19.71436 | 86.36142 | 38909 ft | 517 kts | 139° |
| 2026-05-08 04:22 | 19.66323 | 86.41520 | 38908 ft | 517 kts | 139° |
| 2026-05-08 04:23 | 19.61243 | 86.46859 | 38910 ft | 517 kts | 139° |
| 2026-05-08 04:23 | 19.56123 | 86.52202 | 38909 ft | 516 kts | 140° |
| 2026-05-08 04:24 | 19.50979 | 86.57535 | 38907 ft | 516 kts | 140° |
| 2026-05-08 04:24 | 19.45846 | 86.62857 | 38908 ft | 516 kts | 140° |
| 2026-05-08 04:25 | 19.40721 | 86.68175 | 38909 ft | 516 kts | 140° |
| 2026-05-08 04:25 | 19.35590 | 86.73495 | 38904 ft | 515 kts | 140° |
| 2026-05-08 04:26 | 19.30490 | 86.78779 | 38913 ft | 515 kts | 140° |
| 2026-05-08 04:26 | 19.25364 | 86.84085 | 38907 ft | 515 kts | 140° |
| 2026-05-08 04:27 | 19.20266 | 86.89356 | 38908 ft | 515 kts | 140° |
| 2026-05-08 04:27 | 19.15137 | 86.94654 | 38909 ft | 515 kts | 140° |
| 2026-05-08 04:28 | 19.10002 | 86.99953 | 38904 ft | 515 kts | 140° |
| 2026-05-08 04:28 | 19.04866 | 87.05249 | 38916 ft | 515 kts | 140° |
| 2026-05-08 04:29 | 18.99732 | 87.10540 | 38913 ft | 515 kts | 140° |
| 2026-05-08 04:29 | 18.94600 | 87.15822 | 38898 ft | 515 kts | 140° |
| 2026-05-08 04:30 | 18.89495 | 87.21072 | 38904 ft | 515 kts | 140° |
| 2026-05-08 04:30 | 18.84360 | 87.26348 | 38904 ft | 515 kts | 140° |
| 2026-05-08 04:31 | 18.79218 | 87.31625 | 38915 ft | 515 kts | 140° |
| 2026-05-08 04:31 | 18.74109 | 87.36866 | 38904 ft | 515 kts | 140° |
| 2026-05-08 04:32 | 18.68960 | 87.42141 | 38909 ft | 515 kts | 140° |
| 2026-05-08 04:32 | 18.63817 | 87.47407 | 38909 ft | 515 kts | 140° |
| 2026-05-08 04:33 | 18.58664 | 87.52678 | 38893 ft | 515 kts | 140° |
| 2026-05-08 04:33 | 18.53513 | 87.57942 | 38906 ft | 515 kts | 140° |
| 2026-05-08 04:34 | 18.48387 | 87.63175 | 38909 ft | 515 kts | 140° |
| 2026-05-08 04:34 | 18.43229 | 87.68437 | 38912 ft | 515 kts | 140° |
| 2026-05-08 04:35 | 18.38079 | 87.73686 | 38900 ft | 515 kts | 139° |
| 2026-05-08 04:35 | 18.32921 | 87.78939 | 38904 ft | 515 kts | 139° |
| 2026-05-08 04:36 | 18.28634 | 87.83301 | 38905 ft | 516 kts | 139° |
| 2026-05-08 04:36 | 18.23500 | 87.88585 | 38905 ft | 516 kts | 139° |
| 2026-05-08 04:37 | 18.18393 | 87.93902 | 38905 ft | 516 kts | 139° |
| 2026-05-08 04:37 | 18.13311 | 87.99185 | 38907 ft | 516 kts | 139° |
| 2026-05-08 04:38 | 18.08190 | 88.04490 | 38905 ft | 516 kts | 139° |
| 2026-05-08 04:38 | 18.03082 | 88.09772 | 38906 ft | 515 kts | 139° |
| 2026-05-08 04:39 | 17.97954 | 88.15070 | 38903 ft | 516 kts | 139° |
| 2026-05-08 04:39 | 17.92828 | 88.20362 | 38902 ft | 516 kts | 139° |
| 2026-05-08 04:40 | 17.87740 | 88.25610 | 38899 ft | 516 kts | 139° |
| 2026-05-08 04:40 | 17.82606 | 88.30901 | 38908 ft | 516 kts | 139° |
| 2026-05-08 04:41 | 17.77502 | 88.36157 | 38906 ft | 516 kts | 139° |
| 2026-05-08 04:41 | 17.72345 | 88.41463 | 38901 ft | 516 kts | 138° |
| 2026-05-08 04:42 | 17.67241 | 88.46711 | 38905 ft | 515 kts | 138° |
| 2026-05-08 04:42 | 17.62143 | 88.51947 | 38905 ft | 513 kts | 138° |
| 2026-05-08 04:43 | 17.57047 | 88.57178 | 38906 ft | 512 kts | 138° |
| 2026-05-08 04:43 | 17.51984 | 88.62369 | 38905 ft | 511 kts | 138° |
| 2026-05-08 04:44 | 17.46886 | 88.67592 | 38906 ft | 511 kts | 138° |
| 2026-05-08 04:44 | 17.41815 | 88.72784 | 38905 ft | 511 kts | 138° |
| 2026-05-08 04:45 | 17.36726 | 88.77989 | 38905 ft | 510 kts | 138° |
| 2026-05-08 04:45 | 17.31662 | 88.83165 | 38906 ft | 509 kts | 138° |
| 2026-05-08 04:46 | 17.26595 | 88.88340 | 38905 ft | 509 kts | 138° |
| 2026-05-08 04:46 | 17.21523 | 88.93515 | 38905 ft | 509 kts | 138° |
| 2026-05-08 04:47 | 17.16482 | 88.98681 | 38906 ft | 509 kts | 138° |
| 2026-05-08 04:47 | 17.11456 | 89.03905 | 38905 ft | 509 kts | 137° |
| 2026-05-08 04:48 | 17.06437 | 89.09126 | 38903 ft | 509 kts | 137° |
| 2026-05-08 04:48 | 17.01432 | 89.14317 | 38905 ft | 508 kts | 137° |
| 2026-05-08 04:49 | 16.96391 | 89.19536 | 38905 ft | 508 kts | 137° |
| 2026-05-08 04:49 | 16.91396 | 89.24702 | 38904 ft | 507 kts | 137° |
| 2026-05-08 04:50 | 16.86378 | 89.29887 | 38907 ft | 506 kts | 137° |
| 2026-05-08 04:50 | 16.81398 | 89.35029 | 38903 ft | 506 kts | 137° |
| 2026-05-08 04:51 | 16.76392 | 89.40194 | 38901 ft | 506 kts | 137° |
| 2026-05-08 04:51 | 16.71371 | 89.45371 | 38898 ft | 506 kts | 137° |
| 2026-05-08 04:52 | 16.66358 | 89.50534 | 38902 ft | 505 kts | 137° |
| 2026-05-08 04:52 | 16.61395 | 89.55644 | 38902 ft | 504 kts | 137° |
| 2026-05-08 04:53 | 16.56403 | 89.60780 | 38905 ft | 504 kts | 137° |
| 2026-05-08 04:53 | 16.51398 | 89.65923 | 38900 ft | 504 kts | 137° |
| 2026-05-08 04:54 | 16.46430 | 89.71026 | 38904 ft | 504 kts | 137° |
| 2026-05-08 04:54 | 16.41433 | 89.76153 | 38904 ft | 504 kts | 137° |
| 2026-05-08 04:55 | 16.36426 | 89.81288 | 38903 ft | 504 kts | 137° |
| 2026-05-08 04:55 | 16.31442 | 89.86395 | 38903 ft | 503 kts | 137° |
| 2026-05-08 04:56 | 16.26461 | 89.91495 | 38903 ft | 503 kts | 137° |
| 2026-05-08 04:56 | 16.21488 | 89.96583 | 38904 ft | 502 kts | 137° |
| 2026-05-08 04:57 | 16.16508 | 90.01675 | 38899 ft | 502 kts | 137° |
| 2026-05-08 04:57 | 16.11497 | 90.06794 | 38900 ft | 502 kts | 137° |
| 2026-05-08 04:58 | 16.06510 | 90.11885 | 38897 ft | 502 kts | 137° |
| 2026-05-08 04:58 | 16.01522 | 90.16973 | 38898 ft | 503 kts | 137° |
| 2026-05-08 04:59 | 15.96582 | 90.22105 | 38898 ft | 503 kts | 136° |
| 2026-05-08 04:59 | 15.91684 | 90.27266 | 38898 ft | 503 kts | 136° |
| 2026-05-08 05:00 | 15.86738 | 90.32467 | 38900 ft | 503 kts | 136° |
| 2026-05-08 05:00 | 15.81825 | 90.37614 | 38900 ft | 503 kts | 136° |
| 2026-05-08 05:01 | 15.76920 | 90.42741 | 38897 ft | 502 kts | 136° |
| 2026-05-08 05:01 | 15.71987 | 90.47896 | 38898 ft | 501 kts | 136° |
| 2026-05-08 05:02 | 15.67079 | 90.53020 | 38896 ft | 500 kts | 136° |
| 2026-05-08 05:02 | 15.62182 | 90.58128 | 38899 ft | 499 kts | 136° |
| 2026-05-08 05:03 | 15.57300 | 90.63219 | 38898 ft | 498 kts | 136° |
| 2026-05-08 05:03 | 15.52417 | 90.68307 | 38897 ft | 498 kts | 136° |
| 2026-05-08 05:04 | 15.47515 | 90.73410 | 38895 ft | 498 kts | 136° |
| 2026-05-08 05:04 | 15.42623 | 90.78500 | 38894 ft | 497 kts | 136° |
| 2026-05-08 05:05 | 15.37749 | 90.83568 | 38894 ft | 497 kts | 136° |
| 2026-05-08 05:05 | 15.32900 | 90.88606 | 38895 ft | 497 kts | 136° |
| 2026-05-08 05:06 | 15.27997 | 90.93696 | 38896 ft | 497 kts | 136° |
| 2026-05-08 05:06 | 15.23132 | 90.98743 | 38893 ft | 497 kts | 136° |
| 2026-05-08 05:07 | 15.18241 | 91.03814 | 38895 ft | 497 kts | 136° |
| 2026-05-08 05:07 | 15.13346 | 91.08885 | 38895 ft | 497 kts | 136° |
| 2026-05-08 05:08 | 15.08468 | 91.13936 | 38895 ft | 497 kts | 136° |
| 2026-05-08 05:08 | 15.03603 | 91.18969 | 38895 ft | 496 kts | 135° |
| 2026-05-08 05:09 | 14.98749 | 91.23988 | 38893 ft | 495 kts | 135° |
| 2026-05-08 05:09 | 14.93884 | 91.29014 | 38893 ft | 495 kts | 135° |
| 2026-05-08 05:10 | 14.86542 | 91.36593 | 38896 ft | 496 kts | 135° |
| 2026-05-08 05:11 | 14.81684 | 91.41604 | 38894 ft | 497 kts | 135° |
| 2026-05-08 05:11 | 14.76773 | 91.46666 | 38896 ft | 497 kts | 135° |
| 2026-05-08 05:12 | 14.71897 | 91.51689 | 38893 ft | 497 kts | 135° |
| 2026-05-08 05:12 | 14.67000 | 91.56729 | 38892 ft | 497 kts | 135° |
| 2026-05-08 05:13 | 14.62105 | 91.61765 | 38895 ft | 497 kts | 135° |
| 2026-05-08 05:13 | 14.57208 | 91.66799 | 38895 ft | 497 kts | 135° |
| 2026-05-08 05:14 | 14.52313 | 91.71830 | 38896 ft | 496 kts | 135° |
| 2026-05-08 05:14 | 14.47413 | 91.76859 | 38897 ft | 495 kts | 135° |
| 2026-05-08 05:15 | 14.42574 | 91.81824 | 38896 ft | 494 kts | 135° |
| 2026-05-08 05:15 | 14.37685 | 91.86836 | 38898 ft | 494 kts | 135° |
| 2026-05-08 05:16 | 14.32796 | 91.91847 | 38891 ft | 494 kts | 135° |
| 2026-05-08 05:16 | 14.27959 | 91.96801 | 38895 ft | 493 kts | 135° |
| 2026-05-08 05:17 | 14.23097 | 92.01794 | 38892 ft | 493 kts | 135° |
| 2026-05-08 05:17 | 14.18276 | 92.06874 | 38892 ft | 494 kts | 134° |
| 2026-05-08 05:18 | 14.13517 | 92.11919 | 38896 ft | 494 kts | 134° |
| 2026-05-08 05:18 | 14.08707 | 92.16999 | 38895 ft | 494 kts | 134° |
| 2026-05-08 05:19 | 14.03903 | 92.22057 | 38893 ft | 494 kts | 134° |
| 2026-05-08 05:19 | 13.99116 | 92.27090 | 38895 ft | 494 kts | 134° |
| 2026-05-08 05:20 | 13.94298 | 92.32153 | 38892 ft | 493 kts | 134° |
| 2026-05-08 05:20 | 13.89465 | 92.37144 | 38892 ft | 493 kts | 135° |
| 2026-05-08 05:21 | 13.84529 | 92.42047 | 38891 ft | 493 kts | 136° |
| 2026-05-08 05:21 | 13.79611 | 92.46926 | 38892 ft | 494 kts | 135° |
| 2026-05-08 05:22 | 13.74664 | 92.51862 | 38888 ft | 494 kts | 135° |
| 2026-05-08 05:22 | 13.69726 | 92.56804 | 38889 ft | 494 kts | 135° |
| 2026-05-08 05:23 | 13.64835 | 92.61696 | 38891 ft | 495 kts | 135° |
| 2026-05-08 05:23 | 13.59897 | 92.66632 | 38889 ft | 495 kts | 135° |
| 2026-05-08 05:24 | 13.54941 | 92.71583 | 38888 ft | 496 kts | 135° |
| 2026-05-08 05:24 | 13.49989 | 92.76526 | 38889 ft | 498 kts | 135° |
| 2026-05-08 05:25 | 13.45045 | 92.81457 | 38888 ft | 497 kts | 135° |
| 2026-05-08 05:25 | 13.40096 | 92.86390 | 38889 ft | 495 kts | 135° |
| 2026-05-08 05:26 | 13.35134 | 92.91334 | 38889 ft | 494 kts | 135° |
| 2026-05-08 05:26 | 13.31192 | 92.95259 | 38889 ft | 494 kts | 135° |
| 2026-05-08 05:27 | 13.26234 | 93.00193 | 38891 ft | 494 kts | 135° |
| 2026-05-08 05:27 | 13.20505 | 93.05891 | 38886 ft | 494 kts | 136° |
| 2026-05-08 05:28 | 13.16377 | 93.09995 | 38892 ft | 496 kts | 136° |
| 2026-05-08 05:28 | 13.11424 | 93.14915 | 38895 ft | 497 kts | 136° |
| 2026-05-08 05:29 | 13.06463 | 93.19840 | 38892 ft | 496 kts | 136° |
| 2026-05-08 05:29 | 13.01519 | 93.24746 | 38892 ft | 496 kts | 136° |
| 2026-05-08 05:30 | 12.96561 | 93.29663 | 38892 ft | 495 kts | 136° |
| 2026-05-08 05:30 | 12.91625 | 93.34555 | 38892 ft | 495 kts | 136° |
| 2026-05-08 05:31 | 12.86649 | 93.39484 | 38892 ft | 495 kts | 136° |
| 2026-05-08 05:31 | 12.81722 | 93.44362 | 38892 ft | 495 kts | 136° |
| 2026-05-08 05:32 | 12.76771 | 93.49261 | 38892 ft | 495 kts | 136° |
| 2026-05-08 05:32 | 12.71795 | 93.54180 | 38889 ft | 493 kts | 136° |
| 2026-05-08 05:33 | 12.66875 | 93.59043 | 38889 ft | 492 kts | 136° |
| 2026-05-08 05:33 | 12.61943 | 93.63914 | 38892 ft | 491 kts | 136° |
| 2026-05-08 05:34 | 12.57047 | 93.68747 | 38892 ft | 491 kts | 136° |
| 2026-05-08 05:34 | 12.52128 | 93.73601 | 38892 ft | 490 kts | 136° |
| 2026-05-08 05:35 | 12.47242 | 93.78418 | 38892 ft | 490 kts | 136° |
| 2026-05-08 05:35 | 12.42326 | 93.83263 | 38891 ft | 490 kts | 136° |
| 2026-05-08 05:36 | 12.37419 | 93.88095 | 38889 ft | 489 kts | 136° |
| 2026-05-08 05:36 | 12.32510 | 93.92929 | 38889 ft | 489 kts | 136° |
| 2026-05-08 05:37 | 12.27612 | 93.97748 | 38892 ft | 489 kts | 136° |
| 2026-05-08 05:37 | 12.22708 | 94.02570 | 38892 ft | 488 kts | 136° |
| 2026-05-08 05:38 | 12.17850 | 94.07376 | 38894 ft | 489 kts | 136° |
| 2026-05-08 05:38 | 12.12975 | 94.12233 | 38892 ft | 489 kts | 135° |
| 2026-05-08 05:39 | 12.08100 | 94.17085 | 38890 ft | 489 kts | 136° |
| 2026-05-08 05:39 | 12.03214 | 94.21941 | 38891 ft | 490 kts | 135° |
| 2026-05-08 05:40 | 11.98345 | 94.26773 | 38893 ft | 492 kts | 135° |
| 2026-05-08 05:40 | 11.93427 | 94.31652 | 38892 ft | 493 kts | 135° |
| 2026-05-08 05:41 | 11.88493 | 94.36545 | 38894 ft | 494 kts | 135° |
| 2026-05-08 05:41 | 11.83598 | 94.41397 | 38892 ft | 494 kts | 135° |
| 2026-05-08 05:42 | 11.78891 | 94.46504 | 38890 ft | 493 kts | 130° |
| 2026-05-08 05:42 | 11.74478 | 94.51875 | 38892 ft | 493 kts | 129° |
| 2026-05-08 05:43 | 11.70053 | 94.57229 | 38892 ft | 493 kts | 130° |
| 2026-05-08 05:43 | 11.65568 | 94.62540 | 38892 ft | 493 kts | 130° |
| 2026-05-08 05:44 | 11.61063 | 94.67823 | 38892 ft | 493 kts | 130° |
| 2026-05-08 05:44 | 11.56583 | 94.73066 | 38895 ft | 493 kts | 130° |
| 2026-05-08 05:45 | 11.52079 | 94.78342 | 38887 ft | 493 kts | 130° |
| 2026-05-08 05:45 | 11.47573 | 94.83619 | 38889 ft | 493 kts | 130° |
| 2026-05-08 05:46 | 11.43067 | 94.88894 | 38894 ft | 493 kts | 130° |
| 2026-05-08 05:46 | 11.38555 | 94.94173 | 38892 ft | 493 kts | 130° |
| 2026-05-08 05:47 | 11.34044 | 94.99448 | 38890 ft | 495 kts | 130° |
| 2026-05-08 05:47 | 11.29516 | 95.04740 | 38892 ft | 496 kts | 130° |
| 2026-05-08 05:48 | 11.24974 | 95.10045 | 38894 ft | 496 kts | 130° |
| 2026-05-08 05:48 | 11.20427 | 95.15354 | 38895 ft | 497 kts | 130° |
| 2026-05-08 05:49 | 11.15900 | 95.20637 | 38896 ft | 497 kts | 130° |
| 2026-05-08 05:49 | 11.11353 | 95.25940 | 38895 ft | 497 kts | 130° |
| 2026-05-08 05:50 | 11.06804 | 95.31244 | 38892 ft | 497 kts | 130° |
| 2026-05-08 05:50 | 11.02358 | 95.36424 | 38891 ft | 498 kts | 131° |
| 2026-05-08 05:51 | 10.97823 | 95.41706 | 38892 ft | 499 kts | 131° |
| 2026-05-08 05:51 | 10.93248 | 95.47030 | 38892 ft | 499 kts | 131° |
| 2026-05-08 05:52 | 10.88672 | 95.52355 | 38895 ft | 499 kts | 131° |
| 2026-05-08 05:52 | 10.84086 | 95.57687 | 38895 ft | 500 kts | 130° |
| 2026-05-08 05:53 | 10.79531 | 95.62981 | 38897 ft | 500 kts | 130° |
| 2026-05-08 05:53 | 10.74952 | 95.68300 | 38895 ft | 500 kts | 130° |
| 2026-05-08 05:54 | 10.70365 | 95.73625 | 38893 ft | 500 kts | 130° |
| 2026-05-08 05:54 | 10.65773 | 95.78954 | 38895 ft | 500 kts | 130° |
| 2026-05-08 05:55 | 10.61208 | 95.84249 | 38895 ft | 500 kts | 130° |
| 2026-05-08 05:55 | 10.56614 | 95.89575 | 38895 ft | 500 kts | 130° |
| 2026-05-08 05:56 | 10.52019 | 95.94899 | 38896 ft | 500 kts | 130° |
| 2026-05-08 05:56 | 10.47428 | 96.00216 | 38897 ft | 500 kts | 131° |
| 2026-05-08 05:57 | 10.42843 | 96.05524 | 38895 ft | 499 kts | 131° |
| 2026-05-08 05:57 | 10.38294 | 96.10787 | 38895 ft | 499 kts | 131° |
| 2026-05-08 05:58 | 10.33708 | 96.16092 | 38895 ft | 500 kts | 131° |
| 2026-05-08 05:58 | 10.29106 | 96.21411 | 38895 ft | 500 kts | 131° |
| 2026-05-08 05:59 | 10.24510 | 96.26721 | 38895 ft | 500 kts | 131° |
| 2026-05-08 05:59 | 10.19915 | 96.32028 | 38894 ft | 500 kts | 131° |
| 2026-05-08 06:00 | 10.15309 | 96.37344 | 38895 ft | 501 kts | 131° |
| 2026-05-08 06:00 | 10.10734 | 96.42622 | 38898 ft | 501 kts | 131° |
| 2026-05-08 06:01 | 10.06120 | 96.47942 | 38891 ft | 502 kts | 130° |
| 2026-05-08 06:01 | 10.01500 | 96.53268 | 38892 ft | 503 kts | 130° |
| 2026-05-08 06:02 | 9.96530 | 96.58276 | 38892 ft | 504 kts | 136° |
| 2026-05-08 06:02 | 9.91403 | 96.63118 | 38895 ft | 504 kts | 136° |
| 2026-05-08 06:03 | 9.86278 | 96.67911 | 38896 ft | 504 kts | 136° |
| 2026-05-08 06:03 | 9.81111 | 96.72749 | 38894 ft | 504 kts | 136° |
| 2026-05-08 06:04 | 9.75984 | 96.77558 | 38896 ft | 504 kts | 136° |
| 2026-05-08 06:04 | 9.70825 | 96.82399 | 38894 ft | 504 kts | 136° |
| 2026-05-08 06:05 | 9.65667 | 96.87239 | 38856 ft | 501 kts | 136° |
| 2026-05-08 06:05 | 9.63125 | 96.89623 | 38343 ft | 496 kts | 137° |
| 2026-05-08 06:05 | 9.60590 | 96.91999 | 37587 ft | 497 kts | 136° |
| 2026-05-08 06:05 | 9.58052 | 96.94377 | 36833 ft | 497 kts | 136° |
| 2026-05-08 06:06 | 9.55510 | 96.96758 | 36066 ft | 499 kts | 136° |
| 2026-05-08 06:06 | 9.52956 | 96.99150 | 35287 ft | 501 kts | 136° |
| 2026-05-08 06:06 | 9.50430 | 97.01517 | 34533 ft | 502 kts | 136° |
| 2026-05-08 06:06 | 9.47854 | 97.03928 | 33767 ft | 504 kts | 136° |
| 2026-05-08 06:07 | 9.45269 | 97.06349 | 32920 ft | 506 kts | 136° |
| 2026-05-08 06:07 | 9.42684 | 97.08769 | 32162 ft | 505 kts | 136° |
| 2026-05-08 06:07 | 9.40112 | 97.11176 | 31571 ft | 502 kts | 136° |
| 2026-05-08 06:07 | 9.37553 | 97.13569 | 31028 ft | 498 kts | 136° |
| 2026-05-08 06:08 | 9.35016 | 97.15941 | 30489 ft | 494 kts | 136° |
| 2026-05-08 06:08 | 9.32503 | 97.18290 | 29962 ft | 490 kts | 136° |
| 2026-05-08 06:08 | 9.30043 | 97.20591 | 29398 ft | 485 kts | 136° |
| 2026-05-08 06:08 | 9.27571 | 97.22902 | 28863 ft | 480 kts | 136° |
| 2026-05-08 06:09 | 9.25124 | 97.25189 | 28347 ft | 475 kts | 136° |
| 2026-05-08 06:09 | 9.22701 | 97.27454 | 27842 ft | 469 kts | 136° |
| 2026-05-08 06:09 | 9.20343 | 97.29657 | 27338 ft | 465 kts | 136° |
| 2026-05-08 06:09 | 9.17948 | 97.31895 | 26847 ft | 460 kts | 136° |
| 2026-05-08 06:10 | 9.15639 | 97.34051 | 26347 ft | 455 kts | 136° |
| 2026-05-08 06:10 | 9.13324 | 97.36213 | 25870 ft | 451 kts | 136° |
| 2026-05-08 06:10 | 9.11020 | 97.38365 | 25371 ft | 447 kts | 136° |
| 2026-05-08 06:10 | 9.08744 | 97.40490 | 24896 ft | 443 kts | 136° |
| 2026-05-08 06:11 | 9.06487 | 97.42596 | 24414 ft | 439 kts | 136° |
| 2026-05-08 06:11 | 9.04248 | 97.44685 | 23930 ft | 436 kts | 136° |
| 2026-05-08 06:11 | 9.02030 | 97.46755 | 23441 ft | 432 kts | 136° |
| 2026-05-08 06:11 | 8.99824 | 97.48812 | 22896 ft | 428 kts | 136° |
| 2026-05-08 06:12 | 8.97653 | 97.50837 | 22409 ft | 423 kts | 137° |
| 2026-05-08 06:12 | 8.95503 | 97.52842 | 21928 ft | 418 kts | 137° |
| 2026-05-08 06:12 | 8.93407 | 97.54796 | 21444 ft | 413 kts | 137° |
| 2026-05-08 06:12 | 8.91308 | 97.56752 | 20989 ft | 408 kts | 137° |
| 2026-05-08 06:13 | 8.89229 | 97.58690 | 20522 ft | 403 kts | 137° |
| 2026-05-08 06:13 | 8.87176 | 97.60604 | 20055 ft | 399 kts | 137° |
| 2026-05-08 06:13 | 8.85145 | 97.62496 | 19591 ft | 395 kts | 137° |
| 2026-05-08 06:13 | 8.83132 | 97.64369 | 19088 ft | 392 kts | 137° |
| 2026-05-08 06:14 | 8.81128 | 97.66227 | 18616 ft | 389 kts | 137° |
| 2026-05-08 06:14 | 8.79143 | 97.68065 | 18158 ft | 385 kts | 137° |
| 2026-05-08 06:14 | 8.77177 | 97.69887 | 17659 ft | 382 kts | 137° |
| 2026-05-08 06:14 | 8.75232 | 97.71689 | 17202 ft | 377 kts | 137° |
| 2026-05-08 06:15 | 8.73335 | 97.73448 | 16771 ft | 371 kts | 137° |
| 2026-05-08 06:15 | 8.71443 | 97.75201 | 16332 ft | 367 kts | 137° |
| 2026-05-08 06:15 | 8.69566 | 97.76940 | 15898 ft | 364 kts | 136° |
| 2026-05-08 06:15 | 8.67706 | 97.78664 | 15458 ft | 361 kts | 136° |
| 2026-05-08 06:16 | 8.65859 | 97.80376 | 15040 ft | 358 kts | 136° |
| 2026-05-08 06:16 | 8.64027 | 97.82073 | 14607 ft | 356 kts | 136° |
| 2026-05-08 06:16 | 8.62207 | 97.83759 | 14194 ft | 354 kts | 136° |
| 2026-05-08 06:16 | 8.60399 | 97.85433 | 13767 ft | 351 kts | 136° |
| 2026-05-08 06:17 | 8.56840 | 97.88730 | 12878 ft | 345 kts | 136° |
| 2026-05-08 06:17 | 8.55077 | 97.90363 | 12528 ft | 340 kts | 136° |
| 2026-05-08 06:17 | 8.53348 | 97.91963 | 12187 ft | 334 kts | 136° |
| 2026-05-08 06:18 | 8.51642 | 97.93542 | 11798 ft | 331 kts | 136° |
| 2026-05-08 06:18 | 8.49946 | 97.95112 | 11406 ft | 328 kts | 136° |
| 2026-05-08 06:18 | 8.48157 | 97.96524 | 10995 ft | 327 kts | 148° |
| 2026-05-08 06:18 | 8.46811 | 97.97195 | 10871 ft | 329 kts | 155° |
| 2026-05-08 06:19 | 8.44632 | 97.98094 | 10817 ft | 344 kts | 157° |
| 2026-05-08 06:19 | 8.42388 | 97.98990 | 10633 ft | 346 kts | 157° |
| 2026-05-08 06:19 | 8.40186 | 97.99868 | 10464 ft | 333 kts | 157° |
| 2026-05-08 06:19 | 8.38071 | 98.00714 | 10307 ft | 321 kts | 157° |
| 2026-05-08 06:20 | 8.36061 | 98.01519 | 10147 ft | 309 kts | 157° |
| 2026-05-08 06:20 | 8.34083 | 98.02250 | 10002 ft | 297 kts | 163° |
| 2026-05-08 06:20 | 8.32072 | 98.02593 | 9867 ft | 292 kts | 172° |
| 2026-05-08 06:20 | 8.30041 | 98.02793 | 9727 ft | 293 kts | 173° |
| 2026-05-08 06:21 | 8.28003 | 98.02979 | 9584 ft | 293 kts | 173° |
| 2026-05-08 06:21 | 8.25973 | 98.03167 | 9448 ft | 293 kts | 173° |
| 2026-05-08 06:21 | 8.23947 | 98.03357 | 9309 ft | 292 kts | 173° |
| 2026-05-08 06:21 | 8.21959 | 98.03702 | 9173 ft | 290 kts | 160° |
| 2026-05-08 06:22 | 8.20257 | 98.04740 | 9035 ft | 287 kts | 134° |
| 2026-05-08 06:22 | 8.19222 | 98.06435 | 8899 ft | 285 kts | 107° |
| 2026-05-08 06:22 | 8.19054 | 98.08413 | 8770 ft | 285 kts | 82° |
| 2026-05-08 06:22 | 8.19328 | 98.10400 | 8658 ft | 286 kts | 83° |
| 2026-05-08 06:23 | 8.19557 | 98.12373 | 8595 ft | 286 kts | 84° |
| 2026-05-08 06:23 | 8.19765 | 98.14371 | 8533 ft | 286 kts | 85° |
| 2026-05-08 06:23 | 8.19965 | 98.16374 | 8451 ft | 284 kts | 85° |
| 2026-05-08 06:23 | 8.20156 | 98.18345 | 8167 ft | 282 kts | 85° |
| 2026-05-08 06:24 | 8.20345 | 98.20319 | 7991 ft | 283 kts | 85° |
| 2026-05-08 06:24 | 8.20534 | 98.22301 | 7908 ft | 283 kts | 85° |
| 2026-05-08 06:24 | 8.20721 | 98.24277 | 7818 ft | 283 kts | 85° |
| 2026-05-08 06:24 | 8.20907 | 98.26253 | 7725 ft | 282 kts | 85° |
| 2026-05-08 06:25 | 8.21093 | 98.28223 | 7634 ft | 282 kts | 85° |
| 2026-05-08 06:25 | 8.21276 | 98.30159 | 7468 ft | 278 kts | 85° |
| 2026-05-08 06:25 | 8.21459 | 98.32103 | 7230 ft | 278 kts | 85° |
| 2026-05-08 06:25 | 8.21643 | 98.34058 | 7082 ft | 279 kts | 85° |
| 2026-05-08 06:26 | 8.21827 | 98.36005 | 7006 ft | 279 kts | 85° |
| 2026-05-08 06:26 | 8.22012 | 98.37950 | 6950 ft | 277 kts | 85° |
| 2026-05-08 06:26 | 8.22192 | 98.39870 | 6645 ft | 273 kts | 85° |
| 2026-05-08 06:26 | 8.22371 | 98.41785 | 6329 ft | 274 kts | 85° |
| 2026-05-08 06:27 | 8.22548 | 98.43682 | 6097 ft | 274 kts | 85° |
| 2026-05-08 06:27 | 8.22727 | 98.45599 | 5925 ft | 274 kts | 85° |
| 2026-05-08 06:27 | 8.22905 | 98.47509 | 5749 ft | 273 kts | 85° |
| 2026-05-08 06:27 | 8.23083 | 98.49414 | 5603 ft | 269 kts | 85° |
| 2026-05-08 06:28 | 8.23240 | 98.51256 | 5412 ft | 259 kts | 88° |
| 2026-05-08 06:28 | 8.22996 | 98.53002 | 5168 ft | 253 kts | 111° |
| 2026-05-08 06:28 | 8.21983 | 98.54406 | 4944 ft | 249 kts | 140° |
| 2026-05-08 06:28 | 8.20415 | 98.55131 | 4690 ft | 250 kts | 168° |
| 2026-05-08 06:29 | 8.18683 | 98.55353 | 4441 ft | 251 kts | 174° |
| 2026-05-08 06:29 | 8.16956 | 98.55492 | 4249 ft | 249 kts | 174° |
| 2026-05-08 06:29 | 8.15261 | 98.55513 | 4060 ft | 240 kts | 188° |
| 2026-05-08 06:29 | 8.13811 | 98.54782 | 3858 ft | 234 kts | 226° |
| 2026-05-08 06:30 | 8.13105 | 98.53351 | 3657 ft | 227 kts | 257° |
| 2026-05-08 06:30 | 8.12824 | 98.51793 | 3414 ft | 222 kts | 261° |
| 2026-05-08 06:30 | 8.12669 | 98.50278 | 3189 ft | 219 kts | 267° |
| 2026-05-08 06:30 | 8.12584 | 98.48764 | 3050 ft | 210 kts | 266° |
| 2026-05-08 06:31 | 8.12490 | 98.47337 | 2911 ft | 199 kts | 265° |
| 2026-05-08 06:31 | 8.12385 | 98.45964 | 2649 ft | 192 kts | 265° |
| 2026-05-08 06:31 | 8.12294 | 98.44653 | 2382 ft | 182 kts | 266° |
| 2026-05-08 06:31 | 8.12211 | 98.43413 | 2144 ft | 173 kts | 266° |
| 2026-05-08 06:32 | 8.12130 | 98.42251 | 1912 ft | 164 kts | 265° |
| 2026-05-08 06:32 | 8.12053 | 98.41134 | 1698 ft | 155 kts | 265° |
| 2026-05-08 06:32 | 8.11980 | 98.40065 | 1491 ft | 151 kts | 265° |
| 2026-05-08 06:32 | 8.11906 | 98.39003 | 1285 ft | 151 kts | 265° |
| 2026-05-08 06:33 | 8.11833 | 98.37937 | 1081 ft | 152 kts | 265° |
| 2026-05-08 06:33 | 8.11760 | 98.36877 | 891 ft | 151 kts | 265° |
| 2026-05-08 06:33 | 8.11689 | 98.35834 | 688 ft | 149 kts | 265° |
| 2026-05-08 06:33 | 8.11617 | 98.34796 | 489 ft | 146 kts | 265° |
| 2026-05-08 06:34 | 8.11537 | 98.33779 | 303 ft | 144 kts | 261° |
| 2026-05-08 06:34 | 8.11424 | 98.32777 | 106 ft | 143 kts | 262° |
| 2026-05-08 06:34 | 8.11337 | 98.31858 | 54 ft | 115 kts | 265° |
| 2026-05-08 06:34 | 8.11273 | 98.31158 | 37 ft | 88 kts | 265° |
| 2026-05-08 06:35 | 8.11240 | 98.30803 | 35 ft | 28 kts | 264° |
| 2026-05-08 06:35 | 8.11222 | 98.30618 | 34 ft | 19 kts | 264° |
| 2026-05-08 06:35 | 8.11163 | 98.30523 | 34 ft | 16 kts | 198° |
| 2026-05-08 06:35 | 8.11126 | 98.30513 | 33 ft | 0 kts | 195° |
| 2026-05-08 06:36 | 8.11109 | 98.30508 | 33 ft | 9 kts | 194° |
| 2026-05-08 06:37 | 8.11028 | 98.30488 | 33 ft | 15 kts | 194° |
| 2026-05-08 06:37 | 8.10916 | 98.30459 | 33 ft | 17 kts | 194° |
| 2026-05-08 06:37 | 8.10815 | 98.30432 | 33 ft | 11 kts | 195° |
| 2026-05-08 06:37 | 8.10740 | 98.30412 | 33 ft | 7 kts | 195° |
| 2026-05-08 06:38 | 8.10701 | 98.30401 | 33 ft | 0 kts | 195° |
| 2026-05-08 06:38 | 8.10697 | 98.30400 | 33 ft | 2 kts | 194° |
| 2026-05-08 06:38 | 8.10680 | 98.30403 | 33 ft | 3 kts | 156° |
| 2026-05-08 06:38 | 8.10668 | 98.30427 | 33 ft | 6 kts | 109° |
| 2026-05-08 06:39 | 8.10657 | 98.30462 | 33 ft | 2 kts | 106° |
| 2026-05-08 06:39 | 8.10654 | 98.30476 | 33 ft | 3 kts | 105° |
| 2026-05-08 06:39 | 8.10652 | 98.30484 | 33 ft | 0 kts | 105° |
| 2026-05-08 06:39 | 8.10652 | 98.30483 | 33 ft | 0 kts | 105° |